Time;durP1;ratioP1;P1;durP2;ratioP2;P2;SDS_P1;SDS_P2;PMS_P1;PMS_P2;Temp;Humidity;BMP_temperature;BMP_pressure;BME280_temperature;BME280_humidity;BME280_pressure;Samples;Min_cycle;Max_cycle;Signal;HPM_P1;HPM_P2
2022/04/11 00:01:50;;;;;;;9.98;4.65;;;1.80;99.90;;;;;;4998714;28;20517;-79
2022/04/11 00:04:16;;;;;;;10.40;4.95;;;1.80;99.90;;;;;;4995264;28;20392;-79
2022/04/11 00:06:41;;;;;;;10.48;5.13;;;1.80;99.90;;;;;;4979226;28;20486;-79
2022/04/11 00:09:07;;;;;;;11.40;5.07;;;1.70;99.90;;;;;;4987710;28;20030;-79
2022/04/11 00:11:32;;;;;;;8.60;5.30;;;1.60;99.90;;;;;;4982822;28;20044;-78
2022/04/11 00:13:58;;;;;;;8.13;4.65;;;1.60;99.90;;;;;;4982803;28;20034;-78
2022/04/11 00:16:23;;;;;;;7.95;4.85;;;1.60;99.90;;;;;;4994602;28;20026;-78
2022/04/11 00:18:49;;;;;;;10.68;5.10;;;1.70;99.90;;;;;;4980049;28;20041;-79
2022/04/11 00:21:14;;;;;;;8.10;5.05;;;1.70;99.90;;;;;;4993702;28;20034;-79
2022/04/11 00:23:40;;;;;;;7.88;4.68;;;1.80;99.90;;;;;;4996474;28;20038;-79
2022/04/11 00:26:05;;;;;;;6.78;4.80;;;1.70;99.90;;;;;;4997830;28;20029;-79
2022/04/11 00:28:31;;;;;;;7.75;4.88;;;1.60;99.90;;;;;;4994897;28;20033;-79
2022/04/11 00:30:57;;;;;;;8.77;5.20;;;1.60;99.90;;;;;;4982360;28;20118;-79
2022/04/11 00:33:22;;;;;;;6.63;4.97;;;1.50;99.90;;;;;;5002775;28;20026;-79
2022/04/11 00:35:48;;;;;;;10.00;5.47;;;1.60;99.90;;;;;;4978905;28;20037;-79
2022/04/11 00:38:13;;;;;;;10.50;5.10;;;1.50;99.90;;;;;;4989092;28;20512;-79
2022/04/11 00:40:39;;;;;;;10.02;5.53;;;1.40;99.90;;;;;;4978821;28;20429;-79
2022/04/11 00:43:04;;;;;;;14.00;5.20;;;1.50;99.90;;;;;;4977903;28;20030;-79
2022/04/11 00:45:30;;;;;;;7.22;5.13;;;1.30;99.90;;;;;;5000226;28;20030;-79
2022/04/11 00:47:55;;;;;;;8.68;4.95;;;1.20;99.90;;;;;;4974215;28;20363;-79
2022/04/11 00:50:21;;;;;;;7.78;5.03;;;1.20;99.90;;;;;;4995207;28;20532;-79
2022/04/11 00:52:49;;;;;;;12.38;5.78;;;1.20;99.90;;;;;;4993337;28;20605;-79
2022/04/11 00:55:15;;;;;;;7.43;5.15;;;1.20;99.90;;;;;;4979238;28;20029;-79
2022/04/11 00:57:41;;;;;;;10.30;5.30;;;1.20;99.90;;;;;;4993091;28;20573;-79
2022/04/11 01:00:07;;;;;;;13.55;5.80;;;1.20;99.90;;;;;;4995095;28;20109;-79
2022/04/11 01:02:33;;;;;;;9.10;5.55;;;1.20;99.90;;;;;;4979949;28;20061;-79
2022/04/11 01:04:59;;;;;;;10.40;4.78;;;1.20;99.90;;;;;;4973240;28;20454;-79
2022/04/11 01:07:24;;;;;;;9.38;5.65;;;1.20;99.90;;;;;;4992039;28;20132;-79
2022/04/11 01:09:50;;;;;;;10.23;6.35;;;1.20;99.90;;;;;;4980224;28;20509;-79
2022/04/11 01:12:15;;;;;;;10.13;6.10;;;1.20;99.90;;;;;;4991202;28;20034;-79
2022/04/11 01:14:42;;;;;;;6.85;5.20;;;1.30;99.90;;;;;;4978369;28;20034;-79
2022/04/11 01:17:08;;;;;;;13.70;5.45;;;1.20;99.90;;;;;;5013013;28;20521;-79
2022/04/11 01:19:34;;;;;;;11.40;4.95;;;1.20;99.90;;;;;;4999069;28;20034;-79
2022/04/11 01:21:59;;;;;;;8.68;5.45;;;1.20;99.90;;;;;;4993598;28;20618;-79
2022/04/11 01:24:25;;;;;;;7.53;5.03;;;1.10;99.90;;;;;;4996085;28;20571;-79
2022/04/11 01:26:50;;;;;;;11.70;5.55;;;1.20;99.90;;;;;;4983759;28;20038;-79
2022/04/11 01:29:17;;;;;;;11.75;5.97;;;1.20;99.90;;;;;;4993117;28;20033;-79
2022/04/11 01:31:42;;;;;;;7.95;5.05;;;1.10;99.90;;;;;;4993453;28;20044;-79
2022/04/11 01:34:08;;;;;;;10.75;5.20;;;1.10;99.90;;;;;;5012851;28;20034;-79
2022/04/11 01:36:33;;;;;;;7.55;5.63;;;1.10;99.90;;;;;;4994189;28;20041;-79
2022/04/11 01:38:59;;;;;;;9.05;5.50;;;1.10;99.90;;;;;;4997106;28;20034;-78
2022/04/11 01:41:24;;;;;;;11.65;5.13;;;1.20;99.90;;;;;;4980186;28;20042;-79
2022/04/11 01:43:50;;;;;;;12.60;5.60;;;1.20;99.90;;;;;;5010311;28;20516;-79
2022/04/11 01:46:15;;;;;;;11.07;5.60;;;1.20;99.90;;;;;;4991118;28;20612;-79
2022/04/11 01:48:41;;;;;;;9.00;5.53;;;1.20;99.90;;;;;;4989370;28;20032;-79
2022/04/11 01:51:06;;;;;;;6.53;4.55;;;1.20;99.90;;;;;;4997581;28;20040;-79
2022/04/11 01:53:32;;;;;;;7.75;4.55;;;1.20;99.90;;;;;;4996946;28;20080;-79
2022/04/11 01:55:57;;;;;;;7.95;5.40;;;1.20;99.90;;;;;;4989804;28;20584;-79
2022/04/11 01:58:23;;;;;;;7.65;5.20;;;1.20;99.90;;;;;;4967156;28;20521;-79
2022/04/11 02:00:48;;;;;;;7.07;4.45;;;1.20;99.90;;;;;;4976572;28;20026;-79
2022/04/11 02:03:14;;;;;;;7.63;5.10;;;1.20;99.90;;;;;;4977097;28;20025;-79
2022/04/11 02:05:40;;;;;;;10.68;5.28;;;1.20;99.90;;;;;;4977643;28;20022;-79
2022/04/11 02:08:07;;;;;;;6.93;5.22;;;1.30;99.90;;;;;;4979196;28;20081;-79
2022/04/11 02:10:33;;;;;;;9.93;4.90;;;1.40;99.90;;;;;;4976837;28;20112;-79
2022/04/11 02:12:59;;;;;;;5.63;4.22;;;1.40;99.90;;;;;;4993815;28;20040;-79
2022/04/11 02:15:24;;;;;;;8.82;4.63;;;1.30;99.90;;;;;;4979977;28;20478;-79
2022/04/11 02:17:50;;;;;;;9.77;4.70;;;1.40;99.90;;;;;;4976092;28;20521;-79
2022/04/11 02:20:16;;;;;;;10.23;4.63;;;1.50;99.90;;;;;;4988846;28;20595;-79
2022/04/11 02:23:10;;;;;;;4.93;3.25;;;1.50;99.90;;;;;;4989227;28;20439;-79
2022/04/11 02:25:40;;;;;;;7.18;4.05;;;1.70;99.90;;;;;;4965451;28;20026;-79
2022/04/11 02:28:05;;;;;;;5.60;3.97;;;1.80;99.90;;;;;;4993224;28;20054;-79
2022/04/11 02:30:31;;;;;;;7.97;3.97;;;1.80;99.90;;;;;;4991507;28;20575;-79
2022/04/11 02:32:56;;;;;;;5.88;3.17;;;1.90;99.90;;;;;;4994591;28;20046;-79
2022/04/11 02:35:22;;;;;;;7.75;3.28;;;2.00;99.90;;;;;;4978320;28;20037;-79
2022/04/11 02:37:48;;;;;;;6.95;3.30;;;2.10;99.90;;;;;;4977005;28;20041;-79
2022/04/11 02:40:14;;;;;;;6.55;4.03;;;2.00;99.90;;;;;;4995721;28;20030;-79
2022/04/11 02:42:43;;;;;;;5.05;3.42;;;2.10;99.90;;;;;;4975965;28;20034;-79
2022/04/11 02:45:13;;;;;;;6.35;3.20;;;2.10;99.90;;;;;;4991295;28;20030;-79
2022/04/11 02:47:39;;;;;;;5.78;3.35;;;2.30;99.90;;;;;;4980652;28;20030;-79
2022/04/11 02:50:05;;;;;;;7.78;3.47;;;2.30;99.90;;;;;;4978833;28;20030;-79
2022/04/11 02:52:30;;;;;;;3.50;2.80;;;2.30;99.90;;;;;;4977893;28;20038;-79
2022/04/11 02:54:56;;;;;;;16.77;3.70;;;2.20;99.90;;;;;;4980667;28;20100;-79
2022/04/11 02:57:22;;;;;;;11.65;3.78;;;2.30;99.90;;;;;;4976593;28;20045;-79
2022/04/11 02:59:48;;;;;;;5.00;2.85;;;2.30;99.90;;;;;;4981998;28;20394;-79
2022/04/11 03:02:14;;;;;;;5.13;3.08;;;2.30;99.90;;;;;;4993292;28;20040;-79
2022/04/11 03:04:39;;;;;;;5.68;3.00;;;2.30;99.90;;;;;;4977918;28;20029;-79
2022/04/11 03:07:05;;;;;;;6.97;3.40;;;2.30;99.90;;;;;;4994896;28;20022;-79
2022/04/11 03:09:31;;;;;;;8.18;3.05;;;2.30;99.90;;;;;;4982620;28;20049;-79
2022/04/11 03:11:56;;;;;;;4.72;3.00;;;2.30;99.90;;;;;;4994500;28;20059;-79
2022/04/11 03:14:22;;;;;;;6.32;3.10;;;2.40;99.90;;;;;;4992407;28;20749;-79
2022/04/11 03:16:48;;;;;;;4.88;3.20;;;2.40;99.90;;;;;;4990595;28;20120;-79
2022/04/11 03:19:13;;;;;;;7.78;3.40;;;2.40;99.90;;;;;;4978498;28;20033;-79
2022/04/11 03:21:39;;;;;;;4.00;2.70;;;2.40;99.90;;;;;;4995083;28;20036;-79
2022/04/11 03:24:05;;;;;;;8.05;2.95;;;2.50;99.90;;;;;;4990922;28;20793;-79
2022/04/11 03:26:30;;;;;;;3.45;3.15;;;2.60;99.90;;;;;;4997671;28;20044;-79
2022/04/11 03:28:56;;;;;;;4.88;2.75;;;2.60;99.90;;;;;;4974312;28;20482;-79
2022/04/11 03:31:21;;;;;;;4.18;2.60;;;2.60;99.90;;;;;;4992369;28;20041;-79
2022/04/11 03:33:47;;;;;;;7.90;2.63;;;2.60;99.90;;;;;;4990840;28;20041;-79
2022/04/11 03:36:12;;;;;;;3.75;2.47;;;2.70;99.90;;;;;;4976643;28;20037;-79
2022/04/11 03:38:38;;;;;;;5.43;2.70;;;2.70;99.90;;;;;;4979796;28;20053;-79
2022/04/11 03:41:04;;;;;;;5.97;2.30;;;2.70;99.90;;;;;;4979755;28;20522;-79
2022/04/11 03:43:29;;;;;;;3.15;1.98;;;2.80;99.90;;;;;;4990800;28;20033;-79
2022/04/11 03:45:55;;;;;;;6.85;2.75;;;2.80;99.90;;;;;;4991855;28;20022;-79
2022/04/11 03:48:20;;;;;;;3.45;2.47;;;2.90;99.90;;;;;;4976453;28;20042;-79
2022/04/11 03:50:46;;;;;;;6.55;2.50;;;2.80;99.90;;;;;;4973816;28;20053;-79
2022/04/11 03:53:12;;;;;;;4.05;2.35;;;2.70;99.90;;;;;;4976911;28;20400;-79
2022/04/11 03:55:37;;;;;;;4.53;2.75;;;2.80;99.90;;;;;;4991921;28;20371;-79
2022/04/11 03:58:03;;;;;;;3.50;2.10;;;2.90;99.90;;;;;;4975338;28;20030;-79
2022/04/11 04:00:28;;;;;;;4.10;2.75;;;2.80;99.90;;;;;;4975838;28;20022;-79
2022/04/11 04:03:03;;;;;;;5.80;2.42;;;2.70;99.90;;;;;;4974271;28;20060;-80
2022/04/11 04:05:28;;;;;;;3.65;2.70;;;2.70;99.90;;;;;;4994323;28;20393;-79
2022/04/11 04:07:54;;;;;;;5.53;2.22;;;2.70;99.90;;;;;;4979480;28;20029;-79
2022/04/11 04:10:20;;;;;;;3.60;2.40;;;2.60;99.90;;;;;;5009047;28;20037;-79
2022/04/11 04:12:46;;;;;;;3.55;2.47;;;2.80;99.90;;;;;;5000221;28;20033;-79
2022/04/11 04:15:11;;;;;;;2.17;1.92;;;2.60;99.90;;;;;;4976291;28;20037;-79
2022/04/11 04:17:37;;;;;;;3.08;1.88;;;2.60;99.90;;;;;;4995668;28;20041;-79
2022/04/11 04:20:04;;;;;;;4.47;2.55;;;2.60;99.90;;;;;;4980504;28;20034;-80
2022/04/11 04:22:30;;;;;;;5.00;2.90;;;2.70;99.90;;;;;;4974588;28;20105;-79
2022/04/11 04:24:56;;;;;;;5.72;3.50;;;2.70;99.90;;;;;;4994442;28;20128;-80
2022/04/11 04:27:21;;;;;;;7.80;3.13;;;2.40;99.90;;;;;;4997423;28;20042;-80
2022/04/11 04:29:47;;;;;;;7.88;3.40;;;2.20;99.90;;;;;;4977740;28;20623;-79
2022/04/11 04:32:12;;;;;;;5.05;2.97;;;2.00;99.90;;;;;;4977157;28;20091;-79
2022/04/11 04:34:38;;;;;;;3.50;2.90;;;2.00;99.90;;;;;;4980826;28;20113;-80
2022/04/11 04:37:03;;;;;;;7.20;3.15;;;1.90;99.90;;;;;;4993571;28;20592;-80
2022/04/11 04:39:29;;;;;;;5.75;3.25;;;1.90;99.90;;;;;;4961846;28;20029;-79
2022/04/11 04:41:55;;;;;;;6.25;3.15;;;1.90;99.90;;;;;;4993207;28;20117;-80
2022/04/11 04:44:20;;;;;;;6.80;2.75;;;2.10;99.90;;;;;;4980603;28;20105;-80
2022/04/11 04:46:46;;;;;;;2.70;2.20;;;2.30;99.90;;;;;;4979651;28;20022;-79
2022/04/11 04:49:11;;;;;;;3.15;2.40;;;2.40;99.90;;;;;;4993452;28;20030;-80
2022/04/11 04:51:37;;;;;;;4.15;2.60;;;2.50;99.90;;;;;;5000578;28;20095;-79
2022/04/11 04:54:02;;;;;;;3.78;2.50;;;2.50;99.90;;;;;;4994544;28;20084;-80
2022/04/11 04:56:29;;;;;;;4.53;2.42;;;2.40;99.90;;;;;;4977464;28;20036;-79
2022/04/11 04:58:54;;;;;;;7.13;2.60;;;2.40;99.90;;;;;;4978606;28;20038;-80
2022/04/11 05:01:20;;;;;;;4.75;2.92;;;2.40;99.90;;;;;;4998516;28;20044;-79
2022/04/11 05:03:45;;;;;;;4.25;2.38;;;2.20;99.90;;;;;;4975817;28;20030;-80
2022/04/11 05:06:11;;;;;;;6.45;2.58;;;2.20;99.90;;;;;;4976298;28;20033;-80
2022/04/11 05:08:36;;;;;;;5.95;3.10;;;2.20;99.90;;;;;;4994762;28;20494;-80
2022/04/11 05:11:02;;;;;;;5.07;2.50;;;2.30;99.90;;;;;;4980687;28;20058;-80
2022/04/11 05:13:27;;;;;;;8.23;2.53;;;2.30;99.90;;;;;;4996010;28;20054;-80
2022/04/11 05:15:53;;;;;;;5.25;2.10;;;2.40;99.90;;;;;;4998879;28;20126;-80
2022/04/11 05:18:18;;;;;;;5.88;2.80;;;2.50;99.90;;;;;;4978811;28;20179;-80
2022/04/11 05:20:44;;;;;;;2.80;1.88;;;2.60;99.90;;;;;;5001901;28;20550;-79
2022/04/11 05:23:10;;;;;;;4.90;2.17;;;2.60;99.90;;;;;;4979004;28;20407;-79
2022/04/11 05:25:35;;;;;;;4.32;2.00;;;2.60;99.90;;;;;;4980863;28;20108;-80
2022/04/11 05:28:01;;;;;;;5.68;4.20;;;2.70;99.90;;;;;;4996934;28;20478;-80
2022/04/11 05:30:26;;;;;;;3.03;2.13;;;2.70;99.90;;;;;;4993112;28;20026;-80
2022/04/11 05:32:52;;;;;;;6.50;3.33;;;2.70;99.90;;;;;;4995743;28;20522;-80
2022/04/11 05:35:17;;;;;;;3.10;2.05;;;2.70;99.90;;;;;;4979744;28;20052;-80
2022/04/11 05:37:43;;;;;;;3.13;2.40;;;2.70;99.90;;;;;;4976843;28;20072;-80
2022/04/11 05:40:11;;;;;;;4.05;2.33;;;2.80;99.90;;;;;;4978836;28;20060;-80
2022/04/11 05:42:37;;;;;;;4.75;2.75;;;2.80;99.90;;;;;;4978620;28;20448;-79
2022/04/11 05:45:04;;;;;;;9.00;3.53;;;2.70;99.90;;;;;;4978982;28;20037;-80
2022/04/11 05:47:30;;;;;;;6.00;3.08;;;2.70;99.90;;;;;;4994703;28;20036;-80
2022/04/11 05:49:55;;;;;;;5.32;2.13;;;2.80;99.90;;;;;;4994423;28;20152;-80
2022/04/11 05:52:21;;;;;;;6.35;2.40;;;2.90;99.90;;;;;;4980488;28;20576;-80
2022/04/11 05:54:46;;;;;;;6.50;3.10;;;3.00;99.90;;;;;;4975365;28;20449;-80
2022/04/11 05:57:12;;;;;;;5.22;2.92;;;3.10;99.90;;;;;;4977983;28;20049;-80
2022/04/11 05:59:37;;;;;;;5.55;2.42;;;3.10;99.90;;;;;;4981456;28;20061;-80
2022/04/11 06:02:03;;;;;;;4.38;2.28;;;3.30;99.90;;;;;;4991795;28;20132;-80
2022/04/11 06:04:28;;;;;;;9.05;4.22;;;3.40;99.90;;;;;;5013325;28;20088;-80
2022/04/11 06:06:54;;;;;;;8.85;3.30;;;3.50;99.90;;;;;;4975380;28;20132;-80
2022/04/11 06:09:19;;;;;;;6.35;3.55;;;3.60;99.90;;;;;;4975879;28;20034;-79
2022/04/11 06:11:45;;;;;;;7.72;3.67;;;3.70;99.90;;;;;;4992961;28;20088;-80
2022/04/11 06:14:10;;;;;;;5.93;3.67;;;3.80;99.90;;;;;;5010186;28;20547;-80
2022/04/11 06:16:36;;;;;;;4.50;3.28;;;4.00;99.90;;;;;;4993581;28;20080;-80
2022/04/11 06:19:02;;;;;;;8.57;3.30;;;4.20;99.90;;;;;;4977346;28;20026;-80
2022/04/11 06:21:27;;;;;;;4.95;2.90;;;4.30;99.90;;;;;;4978033;28;20061;-80
2022/04/11 06:23:53;;;;;;;4.88;3.50;;;4.50;99.90;;;;;;4976402;28;20084;-80
2022/04/11 06:26:19;;;;;;;7.50;3.03;;;4.70;99.90;;;;;;4978721;28;20079;-80
2022/04/11 06:28:44;;;;;;;8.85;3.13;;;4.80;99.90;;;;;;4981031;28;20485;-80
2022/04/11 06:31:10;;;;;;;6.88;2.20;;;4.80;99.90;;;;;;4972700;28;20100;-80
2022/04/11 06:33:36;;;;;;;3.38;2.05;;;4.90;99.90;;;;;;4992411;28;20087;-80
2022/04/11 06:36:02;;;;;;;14.38;3.30;;;5.00;99.90;;;;;;5012423;28;20030;-80
2022/04/11 06:38:28;;;;;;;7.95;2.83;;;5.20;99.90;;;;;;4990802;28;20021;-80
2022/04/11 06:40:55;;;;;;;3.80;2.10;;;5.40;99.90;;;;;;4982240;28;20148;-80
2022/04/11 06:43:20;;;;;;;7.00;2.90;;;5.60;99.90;;;;;;4978349;28;20528;-80
2022/04/11 06:45:46;;;;;;;5.07;2.67;;;5.70;99.90;;;;;;4994677;28;20107;-80
2022/04/11 06:48:11;;;;;;;8.10;3.00;;;6.00;99.90;;;;;;4993550;28;20481;-80
2022/04/11 06:50:37;;;;;;;4.55;2.42;;;6.10;99.90;;;;;;4975353;28;20025;-80
2022/04/11 06:53:02;;;;;;;4.10;2.25;;;6.20;99.90;;;;;;4978416;28;20034;-80
2022/04/11 06:55:28;;;;;;;5.10;2.05;;;6.40;99.90;;;;;;4996604;28;20034;-80
2022/04/11 06:57:54;;;;;;;3.42;2.10;;;6.50;99.90;;;;;;4992576;28;21105;-80
2022/04/11 07:00:19;;;;;;;4.55;2.35;;;6.60;99.90;;;;;;4975178;28;20038;-80
2022/04/11 07:02:45;;;;;;;6.57;2.33;;;6.80;99.90;;;;;;4979365;28;20037;-80
2022/04/11 07:05:10;;;;;;;10.35;2.40;;;6.90;99.90;;;;;;4992319;28;20030;-80
2022/04/11 07:07:39;;;;;;;3.58;2.30;;;7.10;99.90;;;;;;4975880;28;20077;-80
2022/04/11 07:10:06;;;;;;;3.60;2.25;;;7.30;99.90;;;;;;4975202;28;20026;-80
2022/04/11 07:12:31;;;;;;;4.15;2.03;;;7.50;99.90;;;;;;4971696;28;20501;-80
2022/04/11 07:15:01;;;;;;;5.18;2.50;;;7.50;99.90;;;;;;4974580;28;20026;-79
2022/04/11 07:17:27;;;;;;;6.88;2.63;;;7.70;99.90;;;;;;4974519;28;20041;-78
2022/04/11 07:19:52;;;;;;;5.45;2.20;;;8.10;99.90;;;;;;4990869;28;20470;-78
2022/04/11 07:22:21;;;;;;;4.03;2.40;;;8.30;99.90;;;;;;4995860;28;20033;-78
2022/04/11 07:24:47;;;;;;;4.72;2.63;;;8.10;99.90;;;;;;4982861;28;20089;-78
2022/04/11 07:27:12;;;;;;;4.45;2.00;;;8.40;99.90;;;;;;5012541;28;20033;-78
2022/04/11 07:29:38;;;;;;;5.28;2.38;;;8.60;99.90;;;;;;4977870;28;20052;-78
2022/04/11 07:32:04;;;;;;;4.47;2.38;;;8.90;99.90;;;;;;4993565;28;20038;-78
2022/04/11 07:34:29;;;;;;;5.20;2.58;;;9.00;99.90;;;;;;4975915;28;20038;-78
2022/04/11 07:36:55;;;;;;;3.05;2.35;;;9.20;99.90;;;;;;4977338;28;20030;-79
2022/04/11 07:39:23;;;;;;;3.65;1.90;;;9.50;99.40;;;;;;4976293;28;20044;-78
2022/04/11 07:41:49;;;;;;;5.25;2.78;;;9.50;99.90;;;;;;4994405;28;20096;-78
2022/04/11 07:44:15;;;;;;;3.35;2.13;;;9.70;99.00;;;;;;4990392;28;20034;-78
2022/04/11 07:46:40;;;;;;;7.35;2.67;;;9.70;99.20;;;;;;4982997;28;20052;-78
2022/04/11 07:49:06;;;;;;;5.78;2.80;;;10.00;98.30;;;;;;4982787;28;20041;-78
2022/04/11 07:51:31;;;;;;;3.00;2.45;;;10.20;97.60;;;;;;4996045;28;20036;-78
2022/04/11 07:53:57;;;;;;;6.55;2.45;;;10.60;96.50;;;;;;4983015;28;20044;-78
2022/04/11 07:56:23;;;;;;;3.75;2.08;;;10.70;95.70;;;;;;4996962;28;20036;-78
2022/04/11 07:58:48;;;;;;;5.20;2.45;;;10.90;93.50;;;;;;4978082;28;20036;-78
2022/04/11 08:01:16;;;;;;;6.38;2.78;;;10.90;93.20;;;;;;4997106;28;20460;-78
2022/04/11 08:03:43;;;;;;;5.28;2.40;;;10.90;92.60;;;;;;4993845;28;20081;-79
2022/04/11 08:06:09;;;;;;;4.72;2.42;;;11.00;92.00;;;;;;4979692;28;20057;-79
2022/04/11 08:08:34;;;;;;;7.35;2.58;;;11.10;92.10;;;;;;4977638;28;20042;-79
2022/04/11 08:11:00;;;;;;;8.38;2.55;;;11.30;92.80;;;;;;4995544;28;20076;-79
2022/04/11 08:13:25;;;;;;;3.58;2.10;;;11.40;90.80;;;;;;4992887;28;20026;-78
2022/04/11 08:15:51;;;;;;;5.28;2.50;;;11.60;91.00;;;;;;4981208;28;20125;-79
2022/04/11 08:18:17;;;;;;;4.90;2.20;;;11.70;91.20;;;;;;4980107;28;20065;-79
2022/04/11 08:20:42;;;;;;;14.70;4.35;;;11.60;91.20;;;;;;4980945;28;20030;-79
2022/04/11 08:23:08;;;;;;;4.25;1.83;;;11.80;88.90;;;;;;4996912;28;20032;-80
2022/04/11 08:25:33;;;;;;;2.67;1.70;;;12.00;89.10;;;;;;4981183;28;20045;-79
2022/04/11 08:27:59;;;;;;;5.68;1.98;;;12.10;89.20;;;;;;4980453;28;20112;-79
2022/04/11 08:30:24;;;;;;;7.80;3.97;;;12.20;85.60;;;;;;4975406;28;20030;-79
2022/04/11 08:32:50;;;;;;;4.85;1.63;;;12.50;85.00;;;;;;4993819;28;20148;-79
2022/04/11 08:35:18;;;;;;;4.03;2.08;;;12.60;81.80;;;;;;4987420;28;20039;-79
2022/04/11 08:37:45;;;;;;;4.93;1.63;;;12.40;83.70;;;;;;4974391;28;20084;-80
2022/04/11 08:40:11;;;;;;;8.55;2.33;;;12.60;84.30;;;;;;4978308;28;20022;-80
2022/04/11 08:42:38;;;;;;;5.25;1.80;;;12.90;85.00;;;;;;4996959;28;20053;-80
2022/04/11 08:45:04;;;;;;;2.45;1.50;;;12.90;84.20;;;;;;4977016;28;20034;-80
2022/04/11 08:47:30;;;;;;;4.63;2.28;;;12.90;83.20;;;;;;4957544;28;20030;-80
2022/04/11 08:49:55;;;;;;;4.13;1.67;;;13.20;82.60;;;;;;4996043;28;20554;-80
2022/04/11 08:52:23;;;;;;;4.28;1.98;;;13.20;81.20;;;;;;4994880;28;20489;-80
2022/04/11 08:54:48;;;;;;;6.90;2.40;;;13.40;79.80;;;;;;4996577;28;20473;-80
2022/04/11 08:57:14;;;;;;;3.60;1.75;;;13.60;74.40;;;;;;4980701;28;20026;-80
2022/04/11 08:59:39;;;;;;;3.10;2.00;;;13.40;81.80;;;;;;4978477;28;20060;-80
2022/04/11 09:02:09;;;;;;;3.42;1.67;;;13.30;79.10;;;;;;4983704;28;20026;-81
2022/04/11 09:05:07;;;;;;;2.33;1.60;;;13.60;82.00;;;;;;4985736;28;20090;-81
2022/04/11 09:07:50;;;;;;;4.68;1.40;;;13.70;79.20;;;;;;4947829;28;20033;-81
2022/04/11 09:10:32;;;;;;;4.53;2.08;;;14.50;73.30;;;;;;4976550;28;20502;-81
2022/04/11 09:13:02;;;;;;;3.45;1.95;;;15.00;71.00;;;;;;4994706;28;20037;-81
2022/04/11 09:15:27;;;;;;;8.32;2.10;;;15.30;66.30;;;;;;4978924;28;20069;-81
2022/04/11 09:17:56;;;;;;;5.22;2.40;;;15.00;63.90;;;;;;4981663;28;20073;-81
2022/04/11 09:20:26;;;;;;;4.30;2.58;;;14.80;67.60;;;;;;4984971;28;20029;-81
2022/04/11 09:22:51;;;;;;;4.10;1.83;;;15.30;66.40;;;;;;4985604;28;20034;-82
2022/04/11 09:25:20;;;;;;;5.32;2.10;;;15.20;64.90;;;;;;4984229;28;20041;-81
2022/04/11 09:27:47;;;;;;;7.38;2.78;;;15.20;64.10;;;;;;4978438;28;20026;-81
2022/04/11 09:30:22;;;;;;;2.25;1.88;;;15.20;67.10;;;;;;4976964;28;20068;-82
2022/04/11 09:32:51;;;;;;;3.97;1.50;;;14.90;68.70;;;;;;4981326;28;20041;-82
2022/04/11 09:35:30;;;;;;;3.28;1.50;;;15.00;68.40;;;;;;4978069;28;20665;-81
2022/04/11 09:38:06;;;;;;;2.58;1.85;;;15.70;64.10;;;;;;4989021;28;20394;-81
2022/04/11 09:40:48;;;;;;;6.60;2.58;;;15.60;61.20;;;;;;4992061;28;20042;-82
2022/04/11 09:43:14;;;;;;;2.47;1.83;;;15.10;67.00;;;;;;4993652;28;20038;-81
2022/04/11 09:45:47;;;;;;;3.47;2.00;;;15.40;65.30;;;;;;4970911;28;20528;-82
2022/04/11 09:48:21;;;;;;;3.42;1.65;;;16.30;64.40;;;;;;4979195;28;20444;-82
2022/04/11 09:50:49;;;;;;;6.10;1.73;;;15.80;60.50;;;;;;4959783;28;20037;-82
2022/04/11 09:53:20;;;;;;;3.60;1.90;;;16.30;62.90;;;;;;4980230;28;20048;-82
2022/04/11 09:55:52;;;;;;;4.50;2.15;;;16.30;61.30;;;;;;4978776;28;20026;-82
2022/04/11 09:58:22;;;;;;;2.90;1.75;;;16.30;62.20;;;;;;4975450;28;20021;-82
2022/04/11 10:00:49;;;;;;;7.65;2.05;;;16.50;59.40;;;;;;4992905;28;20566;-82
2022/04/11 10:03:15;;;;;;;11.20;2.05;;;16.70;59.40;;;;;;5004150;28;20060;-82
2022/04/11 10:05:41;;;;;;;3.63;1.40;;;16.50;58.60;;;;;;4995078;28;20026;-81
2022/04/11 10:08:08;;;;;;;6.80;1.98;;;17.00;57.50;;;;;;4974084;28;20049;-82
2022/04/11 10:10:35;;;;;;;3.22;1.77;;;16.60;54.70;;;;;;4978091;28;20033;-82
2022/04/11 10:13:01;;;;;;;5.05;2.33;;;16.50;55.90;;;;;;4970157;28;20575;-82
2022/04/11 10:15:27;;;;;;;4.53;1.95;;;16.40;57.70;;;;;;4996293;28;20555;-82
2022/04/11 10:17:53;;;;;;;4.95;2.25;;;16.90;60.40;;;;;;4977088;28;20046;-82
2022/04/11 10:20:23;;;;;;;5.18;2.25;;;17.20;57.10;;;;;;4991920;28;20044;-82
2022/04/11 10:23:15;;;;;;;3.38;2.33;;;16.90;57.40;;;;;;4968538;28;20148;-82
2022/04/11 10:25:47;;;;;;;4.10;1.80;;;17.50;61.60;;;;;;5000431;28;20041;-82
2022/04/11 10:28:15;;;;;;;2.55;1.77;;;17.10;57.00;;;;;;4980270;28;20481;-82
2022/04/11 10:30:41;;;;;;;3.10;1.92;;;17.70;58.40;;;;;;4979765;28;20493;-83
2022/04/11 10:33:06;;;;;;;3.63;1.90;;;18.40;55.70;;;;;;4975899;28;20030;-82
2022/04/11 10:35:40;;;;;;;5.63;2.08;;;18.50;52.70;;;;;;4997720;28;20488;-82
2022/04/11 10:41:59;;;;;;;2.95;1.95;;;18.30;53.40;;;;;;4923510;28;20047;-83
2022/04/11 10:44:31;;;;;;;3.38;2.10;;;18.40;54.10;;;;;;4939841;28;20037;-83
2022/04/11 10:47:09;;;;;;;6.03;2.17;;;18.90;55.80;;;;;;4996200;28;20088;-83
2022/04/11 10:49:55;;;;;;;4.38;1.95;;;18.20;53.90;;;;;;5006104;28;20485;-83
2022/04/11 10:52:26;;;;;;;;;;;17.90;55.90;;;;;;5010561;28;20064;-83
2022/04/11 10:54:53;;;;;;;3.92;1.95;;;17.60;55.80;;;;;;5009723;28;20384;-83
2022/04/11 10:57:38;;;;;;;2.70;1.83;;;17.90;59.50;;;;;;4979284;28;20026;-83
2022/04/11 11:00:23;;;;;;;2.53;1.52;;;18.30;56.50;;;;;;4954608;28;20034;-83
2022/04/11 11:02:49;;;;;;;6.32;2.03;;;18.40;57.60;;;;;;4977809;28;20113;-84
2022/04/11 11:05:36;;;;;;;4.43;2.30;;;18.10;59.90;;;;;;4997829;28;20114;-84
2022/04/11 11:08:09;;;;;;;4.38;1.50;;;18.00;63.10;;;;;;4981740;28;20568;-84
2022/04/11 11:10:44;;;;;;;5.70;2.88;;;19.10;63.60;;;;;;5007908;28;20033;-83
2022/04/11 11:13:34;;;;;;;3.67;1.80;;;19.20;54.60;;;;;;5003868;28;20069;-84
2022/04/11 11:16:07;;;;;;;5.22;2.45;;;19.50;54.20;;;;;;4994377;28;20065;-84
2022/04/11 11:18:48;;;;;;;5.38;2.13;;;20.30;52.10;;;;;;4993605;28;20497;-84
2022/04/11 11:21:33;;;;;;;3.05;1.85;;;19.70;50.60;;;;;;5008519;28;20036;-84
2022/04/11 11:24:04;;;;;;;3.17;2.03;;;19.60;54.20;;;;;;4992003;28;20045;-84
2022/04/11 11:26:52;;;;;;;3.42;1.92;;;18.90;60.00;;;;;;5007692;28;20104;-84
2022/04/11 11:29:29;;;;;;;2.70;1.88;;;18.70;61.00;;;;;;4994201;28;20110;-84
2022/04/11 11:31:58;;;;;;;2.40;1.50;;;18.50;63.40;;;;;;4956746;28;20706;-84
2022/04/11 11:34:26;;;;;;;5.40;2.40;;;19.60;54.40;;;;;;4979317;28;20081;-85
2022/04/11 11:37:03;;;;;;;4.13;1.83;;;19.80;57.80;;;;;;4976353;28;20579;-85
2022/04/11 11:39:32;;;;;;;4.90;1.90;;;19.50;54.40;;;;;;4974078;28;20037;-84
2022/04/11 11:42:27;;;;;;;2.83;1.92;;;19.60;53.60;;;;;;4973573;28;20029;-85
2022/04/11 11:44:52;;;;;;;6.65;2.38;;;19.30;53.90;;;;;;4961111;28;20034;-85
2022/04/11 11:47:28;;;;;;;5.45;2.20;;;19.80;56.60;;;;;;4978590;28;20033;-85
2022/04/11 11:50:06;;;;;;;2.58;1.85;;;20.00;54.50;;;;;;4980988;28;20242;-85
2022/04/11 11:52:32;;;;;;;2.45;1.77;;;20.50;53.60;;;;;;4952619;28;20120;-85
2022/04/11 11:55:07;;;;;;;4.38;1.92;;;21.10;53.70;;;;;;4975982;28;20471;-85
2022/04/11 11:57:33;;;;;;;5.65;2.22;;;20.50;56.40;;;;;;4973337;28;20026;-85
2022/04/11 12:00:06;;;;;;;2.13;1.80;;;19.60;58.50;;;;;;4978490;28;20030;-85
2022/04/11 12:05:32;;;;;;;4.05;1.85;;;19.70;53.20;;;;;;4996143;28;20048;-84
2022/04/11 12:08:13;;;;;;;3.72;2.30;;;21.40;54.00;;;;;;4959453;28;20038;-84
2022/04/11 12:10:46;;;;;;;5.05;2.50;;;21.20;48.10;;;;;;4986520;28;20112;-84
2022/04/11 12:13:20;;;;;;;5.47;2.40;;;20.20;55.40;;;;;;4991298;28;20046;-85
2022/04/11 12:15:46;;;;;;;5.40;2.63;;;20.70;52.30;;;;;;4978715;28;20484;-85
2022/04/11 12:18:12;;;;;;;2.97;1.88;;;19.90;56.40;;;;;;4974023;28;20080;-85
2022/04/11 12:20:38;;;;;;;4.53;2.05;;;20.20;53.30;;;;;;4973594;28;20029;-85
2022/04/11 12:23:11;;;;;;;4.32;2.70;;;21.20;57.10;;;;;;4974918;28;20037;-85
2022/04/11 12:25:50;;;;;;;2.42;1.90;;;19.90;56.10;;;;;;4972546;28;20502;-85
2022/04/11 12:28:20;;;;;;;5.38;2.20;;;19.90;58.50;;;;;;4976966;28;20033;-86
2022/04/11 12:31:05;;;;;;;8.40;2.50;;;20.20;58.60;;;;;;4996369;28;20428;-85
2022/04/11 12:33:38;;;;;;;3.45;2.15;;;19.90;57.90;;;;;;4990261;28;20104;-86
2022/04/11 12:36:08;;;;;;;6.63;2.20;;;20.50;51.00;;;;;;4961021;28;20030;-86
2022/04/11 12:39:12;;;;;;;4.85;2.00;;;21.10;48.00;;;;;;4973920;28;20039;-86
2022/04/11 12:41:40;;;;;;;4.85;2.42;;;21.70;51.10;;;;;;4919871;28;20129;-86
2022/04/11 12:44:13;;;;;;;6.78;2.10;;;21.70;51.50;;;;;;5006277;28;20041;-87
2022/04/11 12:46:39;;;;;;;2.42;1.80;;;21.40;51.00;;;;;;4995794;28;20058;-86
2022/04/11 12:49:05;;;;;;;2.92;2.13;;;21.20;48.10;;;;;;4970060;28;20117;-86
2022/04/11 12:51:39;;;;;;;4.53;2.30;;;21.70;50.50;;;;;;4968889;28;20401;-86
2022/04/11 12:54:13;;;;;;;4.72;1.90;;;20.90;54.10;;;;;;4975450;28;20395;-86
2022/04/11 12:56:40;;;;;;;2.90;2.10;;;20.50;56.30;;;;;;4966905;28;20511;-86
2022/04/11 12:59:24;;;;;;;4.32;2.00;;;19.90;58.90;;;;;;4969819;28;20398;-86
2022/04/11 13:01:57;;;;;;;2.67;2.03;;;20.70;56.50;;;;;;4979318;28;20091;-86
2022/04/11 13:04:22;;;;;;;6.22;2.05;;;20.70;51.80;;;;;;4969834;28;20498;-86